createdAt,value
2022-07-30T00:00:28.470Z,58.50
2022-07-30T00:02:56.673Z,58.50
2022-07-30T00:05:26.460Z,58.60
2022-07-30T00:07:54.669Z,58.60
2022-07-30T00:10:24.070Z,58.70
2022-07-30T00:12:52.932Z,58.60
2022-07-30T00:15:21.321Z,58.80
2022-07-30T00:17:49.608Z,58.80
2022-07-30T00:20:18.582Z,58.90
2022-07-30T00:22:48.485Z,59.00
2022-07-30T00:25:18.805Z,59.20
2022-07-30T00:27:47.430Z,59.40
2022-07-30T00:30:16.088Z,59.50
2022-07-30T00:32:44.349Z,59.60
2022-07-30T00:35:13.137Z,59.80
2022-07-30T00:37:41.584Z,59.80
2022-07-30T00:40:12.249Z,59.80
2022-07-30T00:42:42.166Z,59.70
2022-07-30T00:45:11.699Z,59.70
2022-07-30T00:47:40.494Z,59.90
2022-07-30T00:50:11.246Z,59.90
2022-07-30T00:52:40.006Z,59.80
2022-07-30T00:55:13.423Z,60.00
2022-07-30T00:57:42.557Z,60.00
2022-07-30T01:00:14.326Z,60.00
2022-07-30T01:02:42.527Z,59.90
2022-07-30T01:05:11.560Z,59.80
2022-07-30T01:07:39.849Z,59.80
2022-07-30T01:10:12.406Z,59.80
2022-07-30T01:12:45.905Z,59.80
2022-07-30T01:15:17.313Z,59.70
2022-07-30T01:17:52.760Z,59.80
2022-07-30T01:20:30.276Z,59.90
2022-07-30T01:23:13.203Z,59.80
2022-07-30T01:26:10.175Z,59.80
2022-07-30T01:28:44.907Z,59.80
2022-07-30T01:31:17.274Z,59.80
2022-07-30T01:33:48.645Z,59.80
2022-07-30T01:36:22.727Z,59.80
2022-07-30T01:38:59.792Z,59.70
2022-07-30T01:41:36.145Z,59.70
2022-07-30T01:44:09.054Z,59.70
2022-07-30T01:46:40.903Z,59.80
2022-07-30T01:49:11.372Z,59.90
2022-07-30T01:51:41.024Z,60.00
2022-07-30T01:54:10.964Z,60.00
2022-07-30T01:57:02.490Z,60.20
2022-07-30T01:59:33.547Z,60.30
2022-07-30T02:02:07.018Z,60.30
2022-07-30T02:04:38.307Z,60.50
2022-07-30T02:07:14.548Z,60.60
2022-07-30T02:09:55.530Z,60.80
2022-07-30T02:12:35.518Z,61.00
2022-07-30T02:15:16.893Z,61.40
2022-07-30T02:17:54.238Z,61.70
2022-07-30T02:20:40.028Z,62.00
2022-07-30T02:23:16.509Z,62.30
2022-07-30T02:25:53.713Z,62.40
2022-07-30T02:28:42.888Z,62.70
2022-07-30T02:31:19.829Z,62.80
2022-07-30T02:33:51.644Z,63.00
2022-07-30T02:36:32.241Z,63.10
2022-07-30T02:39:03.963Z,63.20
2022-07-30T02:41:38.446Z,63.30
2022-07-30T02:44:22.958Z,63.30
2022-07-30T02:46:54.837Z,63.40
2022-07-30T02:49:32.851Z,63.50
2022-07-30T02:52:11.394Z,63.60
2022-07-30T02:54:43.722Z,63.60
2022-07-30T02:57:17.272Z,63.70
2022-07-30T02:59:54.609Z,63.70
2022-07-30T03:02:29.407Z,63.80
2022-07-30T03:05:03.429Z,63.90
2022-07-30T03:07:39.410Z,63.80
2022-07-30T03:10:10.262Z,63.90
2022-07-30T03:12:40.916Z,63.80
2022-07-30T03:15:19.395Z,64.00
2022-07-30T03:17:57.671Z,64.00
2022-07-30T03:20:32.077Z,64.20
2022-07-30T03:23:03.087Z,64.40
2022-07-30T03:25:35.168Z,64.50
2022-07-30T03:30:56.606Z,64.70
2022-07-30T03:33:38.316Z,64.90
2022-07-30T03:36:28.501Z,64.90
2022-07-30T03:38:57.909Z,65.00
2022-07-30T03:41:26.594Z,65.10
2022-07-30T03:43:57.449Z,65.10
2022-07-30T03:46:33.707Z,65.20
2022-07-30T03:49:02.298Z,65.30
2022-07-30T03:51:32.853Z,65.30
2022-07-30T03:54:13.269Z,65.50
2022-07-30T03:56:42.471Z,65.70
2022-07-30T03:59:11.155Z,65.90
2022-07-30T04:01:40.900Z,66.00
2022-07-30T04:04:19.054Z,66.00
2022-07-30T04:06:48.633Z,66.30
2022-07-30T04:09:19.621Z,66.40
2022-07-30T04:11:49.133Z,66.40
2022-07-30T04:14:18.825Z,66.70
2022-07-30T04:16:53.389Z,66.80
2022-07-30T04:19:24.646Z,66.90
2022-07-30T04:21:55.343Z,67.00
2022-07-30T04:24:28.672Z,67.10
2022-07-30T04:26:58.409Z,67.10
2022-07-30T04:29:28.668Z,67.30
2022-07-30T04:31:58.365Z,67.40
2022-07-30T04:34:27.073Z,67.60
2022-07-30T04:36:55.280Z,67.70
2022-07-30T04:39:23.506Z,67.70
2022-07-30T04:41:55.609Z,67.70
2022-07-30T04:44:25.580Z,67.70
2022-07-30T04:46:54.313Z,67.60
2022-07-30T04:49:26.475Z,67.50
2022-07-30T04:51:55.667Z,67.40
2022-07-30T04:54:29.257Z,67.30
2022-07-30T04:57:01.262Z,67.10
2022-07-30T04:59:29.769Z,66.90
2022-07-30T05:02:00.034Z,67.00
2022-07-30T05:04:35.585Z,67.10
2022-07-30T05:07:08.525Z,67.10
2022-07-30T05:09:38.385Z,66.90
2022-07-30T05:12:14.770Z,66.80
2022-07-30T05:14:47.923Z,66.80
2022-07-30T05:17:18.202Z,66.70
2022-07-30T05:19:48.953Z,66.50
2022-07-30T05:22:18.561Z,66.40
2022-07-30T05:24:46.758Z,66.30
2022-07-30T05:27:16.347Z,66.20
2022-07-30T05:29:45.487Z,66.10
2022-07-30T05:32:16.580Z,65.90
2022-07-30T05:34:55.115Z,65.80
2022-07-30T05:37:24.445Z,65.70
2022-07-30T05:40:02.477Z,65.50
2022-07-30T05:42:33.466Z,65.40
2022-07-30T05:45:04.078Z,65.20
2022-07-30T05:47:33.685Z,64.90
2022-07-30T05:50:05.510Z,64.60
2022-07-30T05:52:35.269Z,64.40
2022-07-30T05:55:04.782Z,64.20
2022-07-30T05:57:35.826Z,63.90
2022-07-30T06:00:07.595Z,63.80
2022-07-30T06:02:43.986Z,63.70
2022-07-30T06:05:18.196Z,63.50
2022-07-30T06:07:47.473Z,63.30
2022-07-30T06:10:15.814Z,63.20
2022-07-30T06:12:48.025Z,63.00
2022-07-30T06:15:23.128Z,62.90
2022-07-30T06:18:01.744Z,62.70
2022-07-30T06:20:37.433Z,62.50
2022-07-30T06:23:06.907Z,62.10
2022-07-30T06:25:35.293Z,61.80
2022-07-30T06:28:34.804Z,61.50
2022-07-30T06:30:57.290Z,61.20
2022-07-30T06:33:29.172Z,61.10
2022-07-30T06:35:58.791Z,60.60
2022-07-30T06:38:27.087Z,60.40
2022-07-30T06:40:59.189Z,60.20
2022-07-30T06:43:33.660Z,59.90
2022-07-30T06:46:04.216Z,59.50
2022-07-30T06:48:32.831Z,59.40
2022-07-30T06:51:05.938Z,59.30
2022-07-30T06:53:35.876Z,58.90
2022-07-30T06:56:13.369Z,58.60
2022-07-30T06:58:41.652Z,58.20
2022-07-30T07:01:11.678Z,57.80
2022-07-30T07:03:41.041Z,57.40
2022-07-30T07:06:16.892Z,57.20
2022-07-30T07:08:45.087Z,56.70
2022-07-30T07:11:15.858Z,56.50
2022-07-30T07:13:48.719Z,56.10
2022-07-30T07:16:16.990Z,55.90
2022-07-30T07:18:46.662Z,55.70
2022-07-30T07:21:27.054Z,55.30
2022-07-30T07:23:57.087Z,54.80
2022-07-30T07:26:37.147Z,54.80
2022-07-30T07:29:06.755Z,54.50
2022-07-30T07:32:05.366Z,54.40
2022-07-30T07:34:25.961Z,54.20
2022-07-30T07:36:59.005Z,53.80
2022-07-30T07:39:32.669Z,53.60
2022-07-30T07:42:04.566Z,53.50
2022-07-30T07:44:32.852Z,53.40
2022-07-30T07:47:02.795Z,53.30
2022-07-30T07:49:33.310Z,53.30
2022-07-30T07:52:05.186Z,52.90
2022-07-30T07:54:33.947Z,52.60
2022-07-30T07:57:07.911Z,52.60
2022-07-30T07:59:40.686Z,52.50
2022-07-30T08:02:11.782Z,52.00
2022-07-30T08:04:42.839Z,52.10
2022-07-30T08:07:14.910Z,52.10
2022-07-30T08:09:44.983Z,51.70
2022-07-30T08:12:16.517Z,51.30
2022-07-30T08:14:44.786Z,51.00
2022-07-30T08:17:14.990Z,50.90
2022-07-30T08:19:43.553Z,51.10
2022-07-30T08:22:18.326Z,50.30
2022-07-30T08:24:47.971Z,50.40
2022-07-30T08:27:20.605Z,50.00
2022-07-30T08:29:48.792Z,49.90
2022-07-30T08:32:19.338Z,49.20
2022-07-30T08:34:48.468Z,47.80
2022-07-30T08:37:19.605Z,46.80
2022-07-30T08:39:47.805Z,46.60
2022-07-30T08:42:16.919Z,45.40
2022-07-30T08:44:46.393Z,45.00
2022-07-30T08:47:18.007Z,44.90
2022-07-30T08:49:50.098Z,44.80
2022-07-30T08:52:35.867Z,44.40
2022-07-30T08:55:06.703Z,44.20
2022-07-30T08:57:36.869Z,43.80
2022-07-30T09:00:07.973Z,43.40
2022-07-30T09:02:36.749Z,42.90
2022-07-30T09:05:07.944Z,43.00
2022-07-30T09:07:39.327Z,43.10
2022-07-30T09:10:08.809Z,43.10
2022-07-30T09:12:39.918Z,43.20
2022-07-30T09:15:16.551Z,42.70
2022-07-30T09:17:49.481Z,43.20
2022-07-30T09:20:32.442Z,43.30
2022-07-30T09:23:10.941Z,42.70
2022-07-30T09:25:47.926Z,42.30
2022-07-30T09:28:17.145Z,42.70
2022-07-30T09:30:53.360Z,42.60
2022-07-30T09:33:40.488Z,42.40
2022-07-30T09:36:14.642Z,42.60
2022-07-30T09:38:51.669Z,42.60
2022-07-30T09:41:41.481Z,42.40
2022-07-30T09:44:09.857Z,41.80
2022-07-30T09:46:47.596Z,41.50
2022-07-30T09:49:17.524Z,41.40
2022-07-30T09:51:55.898Z,41.50
2022-07-30T09:57:57.701Z,40.20
2022-07-30T10:00:29.362Z,40.60
2022-07-30T10:02:57.944Z,40.30
2022-07-30T10:05:26.175Z,39.60
2022-07-30T10:07:57.014Z,39.70
2022-07-30T10:10:31.005Z,39.70
2022-07-30T10:13:04.618Z,39.50
2022-07-30T10:15:35.896Z,39.60
2022-07-30T10:18:06.417Z,39.50
2022-07-30T10:20:35.252Z,39.60
2022-07-30T10:23:08.767Z,39.60
2022-07-30T10:25:49.399Z,39.10
2022-07-30T10:28:24.331Z,39.00
2022-07-30T10:30:53.336Z,38.80
2022-07-30T10:33:37.527Z,38.70
2022-07-30T10:36:11.678Z,38.20
2022-07-30T10:38:43.114Z,38.00
2022-07-30T10:41:43.016Z,38.00
2022-07-30T10:44:35.117Z,38.20
2022-07-30T10:47:06.947Z,37.70
2022-07-30T10:49:41.059Z,37.40
2022-07-30T10:52:12.167Z,37.70
2022-07-30T10:54:43.142Z,37.10
2022-07-30T10:57:31.629Z,36.90
2022-07-30T11:00:13.558Z,36.90
2022-07-30T11:03:14.926Z,36.70
2022-07-30T11:05:45.937Z,36.70
2022-07-30T11:08:31.838Z,36.20
2022-07-30T11:11:16.159Z,36.60
2022-07-30T11:13:57.412Z,36.60
2022-07-30T11:16:47.672Z,36.50
2022-07-30T11:19:56.542Z,36.20
2022-07-30T11:22:38.446Z,36.10
2022-07-30T11:25:12.750Z,36.20
2022-07-30T11:27:45.678Z,35.80
2022-07-30T11:30:36.184Z,36.10
2022-07-30T11:33:33.009Z,35.50
2022-07-30T11:36:10.834Z,35.80
2022-07-30T11:39:06.872Z,35.50
2022-07-30T11:41:35.634Z,35.90
2022-07-30T11:44:29.961Z,35.70
2022-07-30T11:47:00.545Z,35.50
2022-07-30T11:49:36.594Z,35.30
2022-07-30T11:52:05.283Z,34.80
2022-07-30T11:54:33.575Z,34.80
2022-07-30T11:57:04.617Z,34.20
2022-07-30T11:59:33.109Z,34.20
2022-07-30T12:02:02.927Z,33.80
2022-07-30T12:04:31.525Z,34.20
2022-07-30T12:07:00.277Z,34.30
2022-07-30T12:09:29.740Z,34.10
2022-07-30T12:11:58.289Z,34.40
2022-07-30T12:14:29.381Z,34.50
2022-07-30T12:17:00.366Z,34.80
2022-07-30T12:19:47.491Z,34.50
2022-07-30T12:22:19.308Z,35.00
2022-07-30T12:24:47.774Z,34.80
2022-07-30T12:27:16.298Z,35.00
2022-07-30T12:29:44.687Z,35.10
2022-07-30T12:32:13.095Z,35.40
2022-07-30T12:34:55.312Z,35.40
2022-07-30T12:37:23.514Z,35.80
2022-07-30T12:40:05.383Z,35.80
2022-07-30T12:42:33.600Z,36.00
2022-07-30T12:45:01.855Z,35.90
2022-07-30T12:47:33.900Z,35.60
2022-07-30T12:50:16.817Z,35.50
2022-07-30T12:52:50.208Z,35.40
2022-07-30T12:55:19.851Z,35.40
2022-07-30T12:57:56.329Z,35.30
2022-07-30T13:00:25.590Z,35.30
2022-07-30T13:02:54.101Z,35.20
2022-07-30T13:05:44.353Z,35.00
2022-07-30T13:08:12.568Z,34.80
2022-07-30T13:10:54.736Z,35.00
2022-07-30T13:13:23.034Z,35.40
2022-07-30T13:16:01.797Z,35.40
2022-07-30T13:18:30.880Z,35.40
2022-07-30T13:21:00.949Z,35.80
2022-07-30T13:23:29.924Z,35.90
2022-07-30T13:25:58.742Z,36.00
2022-07-30T13:28:28.025Z,35.90
2022-07-30T13:30:58.027Z,35.90
2022-07-30T13:33:26.506Z,35.40
2022-07-30T13:35:54.887Z,34.70
2022-07-30T13:38:24.670Z,34.00
2022-07-30T13:40:53.036Z,34.00
2022-07-30T13:43:21.316Z,33.20
2022-07-30T13:45:50.286Z,33.10
2022-07-30T13:48:18.888Z,32.90
2022-07-30T13:50:47.282Z,32.80
2022-07-30T13:53:15.555Z,32.80
2022-07-30T13:55:46.646Z,33.10
2022-07-30T13:58:15.231Z,32.70
2022-07-30T14:00:45.224Z,32.00
2022-07-30T14:03:13.776Z,32.20
2022-07-30T14:05:42.665Z,31.50
2022-07-30T14:08:11.990Z,31.60
2022-07-30T14:10:40.921Z,31.30
2022-07-30T14:13:19.423Z,31.20
2022-07-30T14:15:49.933Z,30.60
2022-07-30T14:18:18.396Z,30.50
2022-07-30T14:20:48.885Z,30.10
2022-07-30T14:23:17.530Z,30.50
2022-07-30T14:25:45.787Z,30.70
2022-07-30T14:28:16.480Z,31.00
2022-07-30T14:30:44.801Z,30.30
2022-07-30T14:33:13.124Z,30.10
2022-07-30T14:35:41.363Z,30.50
2022-07-30T14:38:09.558Z,30.10
2022-07-30T14:40:37.841Z,30.60
2022-07-30T14:43:06.080Z,31.00
2022-07-30T14:45:36.601Z,31.50
2022-07-30T14:48:07.343Z,31.30
2022-07-30T14:50:46.722Z,31.50
2022-07-30T14:53:24.600Z,31.70
2022-07-30T14:55:53.831Z,31.70
2022-07-30T14:58:28.526Z,31.90
2022-07-30T15:01:15.623Z,32.20
2022-07-30T15:03:49.620Z,32.30
2022-07-30T15:06:21.711Z,32.30
2022-07-30T15:08:53.311Z,32.50
2022-07-30T15:11:28.308Z,32.50
2022-07-30T15:14:01.672Z,32.50
2022-07-30T15:16:32.511Z,32.50
2022-07-30T15:19:04.681Z,32.60
2022-07-30T15:21:33.100Z,32.50
2022-07-30T15:24:01.287Z,32.60
2022-07-30T15:26:29.649Z,32.60
2022-07-30T15:28:57.917Z,32.00
2022-07-30T15:31:26.123Z,31.40
2022-07-30T15:33:55.732Z,30.60
2022-07-30T15:36:25.392Z,30.20
2022-07-30T15:38:53.653Z,30.00
2022-07-30T15:41:21.982Z,29.60
2022-07-30T15:43:50.264Z,29.00
2022-07-30T15:46:18.557Z,28.50
2022-07-30T15:48:48.155Z,28.10
2022-07-30T15:51:21.166Z,27.50
2022-07-30T15:59:18.358Z,25.20
2022-07-30T16:01:48.848Z,24.30
2022-07-30T16:04:21.850Z,23.70
2022-07-30T16:07:11.845Z,23.70
2022-07-30T16:09:42.404Z,23.00
2022-07-30T16:12:12.927Z,22.10
2022-07-30T16:14:43.628Z,21.80
2022-07-30T16:17:15.108Z,21.80
2022-07-30T16:19:45.976Z,21.40
2022-07-30T16:22:36.034Z,21.10
2022-07-30T16:27:46.476Z,21.50
2022-07-30T16:30:16.578Z,21.30
2022-07-30T16:32:44.952Z,20.90
2022-07-30T16:35:13.636Z,20.70
2022-07-30T16:37:43.422Z,21.60
2022-07-30T16:40:22.146Z,23.10
2022-07-30T16:45:32.339Z,24.10
2022-07-30T16:48:00.544Z,25.00
2022-07-30T16:50:28.768Z,25.90
2022-07-30T16:52:58.399Z,25.10
2022-07-30T16:55:26.671Z,25.50
2022-07-30T16:57:54.867Z,26.10
2022-07-30T17:00:23.145Z,25.90
2022-07-30T17:02:51.718Z,26.40
2022-07-30T17:05:19.981Z,25.80
2022-07-30T17:07:48.270Z,25.20
2022-07-30T17:10:25.695Z,25.40
2022-07-30T17:12:57.015Z,26.20
2022-07-30T17:15:32.382Z,27.00
2022-07-30T17:18:01.672Z,27.50
2022-07-30T17:20:30.210Z,27.90
2022-07-30T17:22:58.452Z,28.30
2022-07-30T17:25:28.345Z,28.50
2022-07-30T17:27:56.865Z,28.70
2022-07-30T17:30:25.881Z,29.00
2022-07-30T17:32:54.387Z,29.30
2022-07-30T17:35:24.699Z,29.50
2022-07-30T17:37:53.339Z,29.80
2022-07-30T17:40:30.257Z,29.80
2022-07-30T17:43:04.713Z,30.10
2022-07-30T17:45:34.397Z,30.40
2022-07-30T17:48:02.841Z,30.70
2022-07-30T17:50:34.183Z,30.70
2022-07-30T17:53:05.557Z,30.90
2022-07-30T17:55:35.085Z,31.10
2022-07-30T17:58:06.703Z,31.40
2022-07-30T18:00:37.998Z,31.50
2022-07-30T18:03:08.847Z,31.80
2022-07-30T18:05:37.292Z,31.90
2022-07-30T18:08:15.951Z,32.00
2022-07-30T18:10:47.889Z,32.30
2022-07-30T18:13:26.335Z,32.40
2022-07-30T18:15:59.188Z,32.50
2022-07-30T18:18:27.640Z,32.70
2022-07-30T18:20:55.828Z,32.80
2022-07-30T18:23:24.154Z,33.00
2022-07-30T18:26:03.116Z,33.10
2022-07-30T18:28:33.053Z,33.40
2022-07-30T18:31:01.275Z,33.60
2022-07-30T18:33:29.551Z,33.80
2022-07-30T18:35:57.852Z,34.40
2022-07-30T18:38:26.105Z,34.90
2022-07-30T18:41:02.948Z,35.60
2022-07-30T18:43:47.923Z,36.00
2022-07-30T18:46:19.254Z,36.50
2022-07-30T18:48:48.968Z,37.00
2022-07-30T18:51:27.171Z,37.50
2022-07-30T18:53:55.657Z,37.90
2022-07-30T18:56:27.177Z,38.30
2022-07-30T18:58:56.717Z,38.50
2022-07-30T19:01:25.017Z,38.70
2022-07-30T19:03:53.248Z,39.00
2022-07-30T19:06:21.822Z,39.40
2022-07-30T19:08:50.072Z,39.70
2022-07-30T19:11:18.405Z,40.00
2022-07-30T19:13:46.611Z,40.30
2022-07-30T19:16:16.302Z,40.50
2022-07-30T19:18:44.467Z,40.80
2022-07-30T19:21:14.256Z,40.90
2022-07-30T19:23:43.094Z,41.10
2022-07-30T19:26:11.365Z,41.20
2022-07-30T19:28:39.578Z,41.40
2022-07-30T19:31:08.370Z,41.80
2022-07-30T19:33:37.967Z,42.00
2022-07-30T19:36:06.646Z,42.30
2022-07-30T19:38:34.846Z,42.40
2022-07-30T19:41:03.148Z,42.50
2022-07-30T19:43:33.483Z,42.80
2022-07-30T19:46:01.864Z,42.80
2022-07-30T19:48:31.885Z,42.90
2022-07-30T19:51:02.695Z,43.20
2022-07-30T19:53:33.998Z,43.40
2022-07-30T19:56:10.597Z,43.50
2022-07-30T19:58:40.104Z,43.50
2022-07-30T20:01:09.865Z,43.80
2022-07-30T20:03:38.840Z,44.00
2022-07-30T20:06:14.426Z,44.10
2022-07-30T20:11:36.029Z,44.30
2022-07-30T20:14:04.991Z,44.50
2022-07-30T20:16:33.302Z,44.60
2022-07-30T20:19:03.337Z,44.70
2022-07-30T20:21:56.046Z,44.70
2022-07-30T20:24:24.480Z,44.80
2022-07-30T20:26:53.885Z,44.90
2022-07-30T20:29:22.117Z,45.00
2022-07-30T20:31:50.653Z,45.10
2022-07-30T20:34:23.320Z,45.10
2022-07-30T20:36:53.972Z,45.10
2022-07-30T20:39:25.160Z,45.10
2022-07-30T20:42:07.818Z,45.30
2022-07-30T20:44:37.752Z,45.60
2022-07-30T20:47:08.303Z,45.70
2022-07-30T20:49:38.501Z,45.80
2022-07-30T20:52:10.753Z,46.00
2022-07-30T20:54:45.057Z,45.90
2022-07-30T20:57:15.602Z,46.00
2022-07-30T20:59:48.372Z,46.00
2022-07-30T21:02:17.065Z,46.10
2022-07-30T21:04:59.504Z,46.10
2022-07-30T21:07:36.386Z,46.20
2022-07-30T21:10:07.280Z,46.30
2022-07-30T21:12:36.445Z,46.30
2022-07-30T21:15:05.234Z,46.40
2022-07-30T21:17:51.486Z,46.70
2022-07-30T21:20:27.401Z,46.40
2022-07-30T21:23:03.368Z,46.70
2022-07-30T21:25:32.532Z,46.90
2022-07-30T21:28:02.730Z,47.00
2022-07-30T21:30:50.883Z,47.10
2022-07-30T21:33:19.819Z,47.60
2022-07-30T21:35:48.056Z,47.50
2022-07-30T21:38:17.657Z,47.70
2022-07-30T21:40:45.854Z,47.80
2022-07-30T21:43:14.057Z,47.90
2022-07-30T21:45:54.912Z,48.20
2022-07-30T21:48:23.976Z,48.50
2022-07-30T21:50:52.285Z,48.60
2022-07-30T21:53:29.933Z,48.80
2022-07-30T21:56:10.299Z,49.20
2022-07-30T21:58:40.339Z,49.50
2022-07-30T22:01:17.348Z,49.80
2022-07-30T22:04:01.581Z,49.90
2022-07-30T22:06:33.903Z,50.00
2022-07-30T22:09:18.190Z,50.20
2022-07-30T22:11:48.239Z,50.40
2022-07-30T22:14:16.541Z,50.60
2022-07-30T22:16:45.936Z,50.70
2022-07-30T22:19:15.075Z,50.90
2022-07-30T22:24:33.139Z,51.30
2022-07-30T22:27:10.901Z,51.60
2022-07-30T22:29:43.383Z,51.80
2022-07-30T22:32:13.024Z,52.00
2022-07-30T22:34:41.255Z,52.10
2022-07-30T22:37:12.878Z,52.30
2022-07-30T22:39:51.232Z,52.50
2022-07-30T22:42:20.985Z,52.70
2022-07-30T22:47:53.943Z,52.80
2022-07-30T22:50:26.113Z,52.80
2022-07-30T22:53:09.817Z,52.90
2022-07-30T22:55:45.006Z,53.00
2022-07-30T22:58:13.608Z,53.00
2022-07-30T23:00:41.966Z,53.10
2022-07-30T23:03:12.719Z,53.20
2022-07-30T23:05:55.151Z,53.30
2022-07-30T23:08:30.417Z,53.40
2022-07-30T23:11:14.704Z,53.50
2022-07-30T23:12:16.737Z,44.30
2022-07-30T23:12:28.558Z,51.10
2022-07-30T23:12:30.391Z,52.70
2022-07-30T23:13:43.527Z,53.60
2022-07-30T23:16:11.803Z,53.90
2022-07-30T23:18:40.072Z,53.80
2022-07-30T23:21:08.330Z,54.00
2022-07-30T23:23:36.785Z,54.10
2022-07-30T23:26:05.622Z,54.40
2022-07-30T23:28:36.862Z,54.50
2022-07-30T23:31:05.286Z,54.50
2022-07-30T23:33:33.683Z,54.60
2022-07-30T23:36:02.035Z,54.70
2022-07-30T23:38:30.255Z,54.80
2022-07-30T23:41:01.405Z,55.00
2022-07-30T23:43:29.968Z,55.10
2022-07-30T23:45:59.760Z,55.20
2022-07-30T23:48:29.251Z,55.20
2022-07-30T23:50:57.455Z,55.20
2022-07-30T23:53:26.114Z,55.30
2022-07-30T23:55:54.443Z,55.30
2022-07-30T23:58:23.024Z,55.30
